sensor_id;sensor_type;location;lat;lon;timestamp;P1;durP1;ratioP1;P2;durP2;ratioP2
47367;SDS011;34646;47.964;7.982;2023-10-08T00:01:42;6.28;;;2.40;;
47367;SDS011;34646;47.964;7.982;2023-10-08T00:07:42;7.30;;;2.63;;
47367;SDS011;34646;47.964;7.982;2023-10-08T00:13:43;6.50;;;2.70;;
47367;SDS011;34646;47.964;7.982;2023-10-08T00:19:44;6.25;;;2.90;;
47367;SDS011;34646;47.964;7.982;2023-10-08T00:25:45;4.47;;;2.43;;
47367;SDS011;34646;47.964;7.982;2023-10-08T00:31:47;5.45;;;2.53;;
47367;SDS011;34646;47.964;7.982;2023-10-08T00:37:50;8.88;;;3.25;;
47367;SDS011;34646;47.964;7.982;2023-10-08T00:43:51;5.93;;;2.80;;
47367;SDS011;34646;47.964;7.982;2023-10-08T00:49:51;5.40;;;2.63;;
47367;SDS011;34646;47.964;7.982;2023-10-08T00:56:09;10.30;;;2.85;;
47367;SDS011;34646;47.964;7.982;2023-10-08T01:02:14;6.72;;;2.30;;
47367;SDS011;34646;47.964;7.982;2023-10-08T01:08:15;7.93;;;2.37;;
47367;SDS011;34646;47.964;7.982;2023-10-08T01:14:32;5.28;;;2.28;;
47367;SDS011;34646;47.964;7.982;2023-10-08T01:20:33;6.13;;;2.40;;
47367;SDS011;34646;47.964;7.982;2023-10-08T01:26:34;7.03;;;2.63;;
47367;SDS011;34646;47.964;7.982;2023-10-08T01:32:39;5.10;;;2.30;;
47367;SDS011;34646;47.964;7.982;2023-10-08T01:38:40;7.05;;;2.65;;
47367;SDS011;34646;47.964;7.982;2023-10-08T01:44:48;5.32;;;2.40;;
47367;SDS011;34646;47.964;7.982;2023-10-08T01:50:53;4.25;;;2.15;;
47367;SDS011;34646;47.964;7.982;2023-10-08T01:56:56;7.03;;;2.42;;
47367;SDS011;34646;47.964;7.982;2023-10-08T02:02:56;6.53;;;2.27;;
47367;SDS011;34646;47.964;7.982;2023-10-08T02:08:59;6.78;;;2.97;;
47367;SDS011;34646;47.964;7.982;2023-10-08T02:15:07;6.28;;;2.80;;
47367;SDS011;34646;47.964;7.982;2023-10-08T02:21:11;4.72;;;2.28;;
47367;SDS011;34646;47.964;7.982;2023-10-08T02:33:15;4.70;;;2.17;;
47367;SDS011;34646;47.964;7.982;2023-10-08T02:39:16;6.17;;;2.43;;
47367;SDS011;34646;47.964;7.982;2023-10-08T02:45:21;5.30;;;2.40;;
47367;SDS011;34646;47.964;7.982;2023-10-08T02:51:22;6.77;;;2.17;;
47367;SDS011;34646;47.964;7.982;2023-10-08T02:57:24;6.32;;;2.20;;
47367;SDS011;34646;47.964;7.982;2023-10-08T03:03:27;4.60;;;2.38;;
47367;SDS011;34646;47.964;7.982;2023-10-08T03:09:29;5.72;;;2.22;;
47367;SDS011;34646;47.964;7.982;2023-10-08T03:15:32;5.65;;;2.30;;
47367;SDS011;34646;47.964;7.982;2023-10-08T03:21:41;5.43;;;2.60;;
47367;SDS011;34646;47.964;7.982;2023-10-08T03:27:41;4.30;;;2.10;;
47367;SDS011;34646;47.964;7.982;2023-10-08T03:33:42;4.90;;;2.30;;
47367;SDS011;34646;47.964;7.982;2023-10-08T03:39:49;5.45;;;2.17;;
47367;SDS011;34646;47.964;7.982;2023-10-08T03:45:51;5.28;;;2.10;;
47367;SDS011;34646;47.964;7.982;2023-10-08T03:51:53;5.57;;;2.10;;
47367;SDS011;34646;47.964;7.982;2023-10-08T03:57:57;4.95;;;2.30;;
47367;SDS011;34646;47.964;7.982;2023-10-08T04:03:58;4.63;;;2.20;;
47367;SDS011;34646;47.964;7.982;2023-10-08T04:09:59;6.38;;;2.40;;
47367;SDS011;34646;47.964;7.982;2023-10-08T04:16:24;4.43;;;2.28;;
47367;SDS011;34646;47.964;7.982;2023-10-08T04:22:27;4.97;;;2.45;;
47367;SDS011;34646;47.964;7.982;2023-10-08T04:28:28;5.30;;;2.03;;
47367;SDS011;34646;47.964;7.982;2023-10-08T04:34:31;5.22;;;2.00;;
47367;SDS011;34646;47.964;7.982;2023-10-08T04:40:33;4.60;;;2.03;;
47367;SDS011;34646;47.964;7.982;2023-10-08T04:46:48;5.03;;;2.20;;
47367;SDS011;34646;47.964;7.982;2023-10-08T04:52:51;4.65;;;2.20;;
47367;SDS011;34646;47.964;7.982;2023-10-08T04:58:58;4.50;;;2.35;;
47367;SDS011;34646;47.964;7.982;2023-10-08T05:04:59;3.97;;;2.13;;
47367;SDS011;34646;47.964;7.982;2023-10-08T05:11:12;6.55;;;2.10;;
47367;SDS011;34646;47.964;7.982;2023-10-08T05:17:37;4.50;;;1.95;;
47367;SDS011;34646;47.964;7.982;2023-10-08T05:23:46;5.85;;;2.20;;
47367;SDS011;34646;47.964;7.982;2023-10-08T05:30:05;4.47;;;2.08;;
47367;SDS011;34646;47.964;7.982;2023-10-08T05:36:30;3.70;;;1.83;;
47367;SDS011;34646;47.964;7.982;2023-10-08T05:42:50;5.75;;;2.08;;
47367;SDS011;34646;47.964;7.982;2023-10-08T05:49:01;6.17;;;2.10;;
47367;SDS011;34646;47.964;7.982;2023-10-08T05:55:07;4.53;;;1.85;;
47367;SDS011;34646;47.964;7.982;2023-10-08T06:01:15;6.38;;;2.13;;
47367;SDS011;34646;47.964;7.982;2023-10-08T06:13:53;4.40;;;1.90;;
47367;SDS011;34646;47.964;7.982;2023-10-08T06:20:01;3.30;;;1.92;;
47367;SDS011;34646;47.964;7.982;2023-10-08T06:26:09;5.53;;;2.58;;
47367;SDS011;34646;47.964;7.982;2023-10-08T06:32:10;3.90;;;1.63;;
47367;SDS011;34646;47.964;7.982;2023-10-08T06:38:12;4.53;;;2.13;;
47367;SDS011;34646;47.964;7.982;2023-10-08T06:44:15;5.07;;;1.95;;
47367;SDS011;34646;47.964;7.982;2023-10-08T06:50:15;18.33;;;3.53;;
47367;SDS011;34646;47.964;7.982;2023-10-08T07:02:19;20.55;;;3.38;;
47367;SDS011;34646;47.964;7.982;2023-10-08T07:08:21;23.13;;;4.50;;
47367;SDS011;34646;47.964;7.982;2023-10-08T07:14:24;23.05;;;5.22;;
47367;SDS011;34646;47.964;7.982;2023-10-08T07:20:26;25.33;;;4.88;;
47367;SDS011;34646;47.964;7.982;2023-10-08T07:26:29;16.02;;;4.28;;
47367;SDS011;34646;47.964;7.982;2023-10-08T07:32:46;17.27;;;3.42;;
47367;SDS011;34646;47.964;7.982;2023-10-08T07:38:47;19.47;;;3.97;;
47367;SDS011;34646;47.964;7.982;2023-10-08T07:44:47;11.07;;;3.10;;
47367;SDS011;34646;47.964;7.982;2023-10-08T07:50:50;20.13;;;3.90;;
47367;SDS011;34646;47.964;7.982;2023-10-08T07:56:52;15.68;;;3.35;;
47367;SDS011;34646;47.964;7.982;2023-10-08T08:03:09;15.68;;;3.90;;
47367;SDS011;34646;47.964;7.982;2023-10-08T08:09:11;17.83;;;3.35;;
47367;SDS011;34646;47.964;7.982;2023-10-08T08:15:19;23.55;;;4.28;;
47367;SDS011;34646;47.964;7.982;2023-10-08T08:21:20;13.27;;;3.58;;
47367;SDS011;34646;47.964;7.982;2023-10-08T08:27:23;16.17;;;3.67;;
47367;SDS011;34646;47.964;7.982;2023-10-08T08:33:24;17.60;;;3.37;;
47367;SDS011;34646;47.964;7.982;2023-10-08T08:39:25;16.30;;;3.93;;
47367;SDS011;34646;47.964;7.982;2023-10-08T08:51:40;22.08;;;3.67;;
47367;SDS011;34646;47.964;7.982;2023-10-08T08:57:43;26.42;;;4.13;;
47367;SDS011;34646;47.964;7.982;2023-10-08T09:03:44;23.42;;;3.95;;
47367;SDS011;34646;47.964;7.982;2023-10-08T09:09:48;15.82;;;4.00;;
47367;SDS011;34646;47.964;7.982;2023-10-08T09:15:50;14.32;;;3.03;;
47367;SDS011;34646;47.964;7.982;2023-10-08T09:28:08;17.02;;;3.15;;
47367;SDS011;34646;47.964;7.982;2023-10-08T09:34:12;14.38;;;3.40;;
47367;SDS011;34646;47.964;7.982;2023-10-08T09:40:17;16.85;;;3.78;;
47367;SDS011;34646;47.964;7.982;2023-10-08T09:46:22;18.73;;;4.15;;
47367;SDS011;34646;47.964;7.982;2023-10-08T09:52:33;21.75;;;4.07;;
47367;SDS011;34646;47.964;7.982;2023-10-08T09:58:37;11.65;;;3.38;;
47367;SDS011;34646;47.964;7.982;2023-10-08T10:04:42;21.35;;;4.13;;
47367;SDS011;34646;47.964;7.982;2023-10-08T10:10:44;20.40;;;3.97;;
47367;SDS011;34646;47.964;7.982;2023-10-08T10:16:48;31.33;;;4.07;;
47367;SDS011;34646;47.964;7.982;2023-10-08T10:29:34;17.23;;;3.55;;
47367;SDS011;34646;47.964;7.982;2023-10-08T10:35:35;13.70;;;3.92;;
47367;SDS011;34646;47.964;7.982;2023-10-08T10:41:40;15.98;;;4.07;;
47367;SDS011;34646;47.964;7.982;2023-10-08T10:47:44;12.40;;;3.50;;
47367;SDS011;34646;47.964;7.982;2023-10-08T10:53:45;16.50;;;3.70;;
47367;SDS011;34646;47.964;7.982;2023-10-08T11:00:08;13.93;;;2.93;;
47367;SDS011;34646;47.964;7.982;2023-10-08T11:06:29;11.98;;;3.67;;
47367;SDS011;34646;47.964;7.982;2023-10-08T11:12:33;17.35;;;3.25;;
47367;SDS011;34646;47.964;7.982;2023-10-08T11:18:47;11.77;;;3.20;;
47367;SDS011;34646;47.964;7.982;2023-10-08T11:24:50;11.63;;;3.50;;
47367;SDS011;34646;47.964;7.982;2023-10-08T11:30:54;10.00;;;3.38;;
47367;SDS011;34646;47.964;7.982;2023-10-08T11:36:59;10.15;;;3.75;;
47367;SDS011;34646;47.964;7.982;2023-10-08T11:42:59;12.13;;;3.47;;
47367;SDS011;34646;47.964;7.982;2023-10-08T11:49:03;14.65;;;3.42;;
47367;SDS011;34646;47.964;7.982;2023-10-08T11:55:05;19.23;;;3.67;;
47367;SDS011;34646;47.964;7.982;2023-10-08T12:01:06;12.50;;;3.25;;
47367;SDS011;34646;47.964;7.982;2023-10-08T12:07:07;12.33;;;2.90;;
47367;SDS011;34646;47.964;7.982;2023-10-08T12:13:07;18.70;;;3.77;;
47367;SDS011;34646;47.964;7.982;2023-10-08T12:19:10;16.67;;;3.72;;
47367;SDS011;34646;47.964;7.982;2023-10-08T12:25:17;18.08;;;3.58;;
47367;SDS011;34646;47.964;7.982;2023-10-08T12:31:18;15.13;;;3.40;;
47367;SDS011;34646;47.964;7.982;2023-10-08T12:37:22;8.45;;;3.17;;
47367;SDS011;34646;47.964;7.982;2023-10-08T12:43:23;11.60;;;3.10;;
47367;SDS011;34646;47.964;7.982;2023-10-08T12:49:27;12.18;;;3.80;;
47367;SDS011;34646;47.964;7.982;2023-10-08T12:55:33;14.80;;;3.75;;
47367;SDS011;34646;47.964;7.982;2023-10-08T13:01:39;10.90;;;3.38;;
47367;SDS011;34646;47.964;7.982;2023-10-08T13:07:41;12.88;;;3.22;;
47367;SDS011;34646;47.964;7.982;2023-10-08T13:13:43;13.23;;;3.63;;
47367;SDS011;34646;47.964;7.982;2023-10-08T13:19:44;13.45;;;3.25;;
47367;SDS011;34646;47.964;7.982;2023-10-08T13:25:46;11.55;;;3.17;;
47367;SDS011;34646;47.964;7.982;2023-10-08T13:31:54;12.02;;;3.60;;
47367;SDS011;34646;47.964;7.982;2023-10-08T13:37:54;11.53;;;3.20;;
47367;SDS011;34646;47.964;7.982;2023-10-08T13:43:56;10.23;;;2.92;;
47367;SDS011;34646;47.964;7.982;2023-10-08T13:50:05;15.85;;;3.20;;
47367;SDS011;34646;47.964;7.982;2023-10-08T13:56:10;11.10;;;3.25;;
47367;SDS011;34646;47.964;7.982;2023-10-08T14:08:16;8.27;;;2.55;;
47367;SDS011;34646;47.964;7.982;2023-10-08T14:14:18;8.75;;;2.90;;
47367;SDS011;34646;47.964;7.982;2023-10-08T14:20:20;7.93;;;2.95;;
47367;SDS011;34646;47.964;7.982;2023-10-08T14:26:23;8.30;;;2.90;;
47367;SDS011;34646;47.964;7.982;2023-10-08T14:32:25;9.18;;;2.90;;
47367;SDS011;34646;47.964;7.982;2023-10-08T14:38:27;8.73;;;2.92;;
47367;SDS011;34646;47.964;7.982;2023-10-08T14:44:46;14.00;;;3.35;;
47367;SDS011;34646;47.964;7.982;2023-10-08T14:50:47;6.90;;;2.53;;
47367;SDS011;34646;47.964;7.982;2023-10-08T14:56:49;7.72;;;2.80;;
47367;SDS011;34646;47.964;7.982;2023-10-08T15:02:51;7.93;;;3.20;;
47367;SDS011;34646;47.964;7.982;2023-10-08T15:08:54;8.13;;;2.95;;
47367;SDS011;34646;47.964;7.982;2023-10-08T15:14:55;6.82;;;2.65;;
47367;SDS011;34646;47.964;7.982;2023-10-08T15:20:55;11.63;;;2.33;;
47367;SDS011;34646;47.964;7.982;2023-10-08T15:26:56;13.30;;;2.80;;
47367;SDS011;34646;47.964;7.982;2023-10-08T15:32:57;7.23;;;2.60;;
47367;SDS011;34646;47.964;7.982;2023-10-08T15:38:58;7.07;;;2.67;;
47367;SDS011;34646;47.964;7.982;2023-10-08T15:44:59;7.85;;;2.72;;
47367;SDS011;34646;47.964;7.982;2023-10-08T15:51:01;8.48;;;2.75;;
47367;SDS011;34646;47.964;7.982;2023-10-08T15:57:03;5.33;;;2.23;;
47367;SDS011;34646;47.964;7.982;2023-10-08T16:03:04;6.70;;;2.60;;
47367;SDS011;34646;47.964;7.982;2023-10-08T16:09:05;6.90;;;2.30;;
47367;SDS011;34646;47.964;7.982;2023-10-08T16:15:06;7.47;;;2.60;;
47367;SDS011;34646;47.964;7.982;2023-10-08T16:21:09;5.68;;;2.42;;
47367;SDS011;34646;47.964;7.982;2023-10-08T16:27:13;29.10;;;3.20;;
47367;SDS011;34646;47.964;7.982;2023-10-08T16:33:15;12.82;;;2.58;;
47367;SDS011;34646;47.964;7.982;2023-10-08T16:39:16;16.07;;;2.83;;
47367;SDS011;34646;47.964;7.982;2023-10-08T16:45:19;13.15;;;2.55;;
47367;SDS011;34646;47.964;7.982;2023-10-08T16:51:21;11.35;;;2.38;;
47367;SDS011;34646;47.964;7.982;2023-10-08T16:57:22;10.43;;;2.50;;
47367;SDS011;34646;47.964;7.982;2023-10-08T17:03:23;13.03;;;2.40;;
47367;SDS011;34646;47.964;7.982;2023-10-08T17:09:24;12.90;;;2.72;;
47367;SDS011;34646;47.964;7.982;2023-10-08T17:15:27;11.80;;;2.80;;
47367;SDS011;34646;47.964;7.982;2023-10-08T17:21:28;12.13;;;2.85;;
47367;SDS011;34646;47.964;7.982;2023-10-08T17:27:29;7.53;;;2.50;;
47367;SDS011;34646;47.964;7.982;2023-10-08T17:33:31;11.88;;;2.22;;
47367;SDS011;34646;47.964;7.982;2023-10-08T17:39:32;11.55;;;2.72;;
47367;SDS011;34646;47.964;7.982;2023-10-08T17:45:33;10.83;;;3.30;;
47367;SDS011;34646;47.964;7.982;2023-10-08T17:51:35;14.18;;;2.92;;
47367;SDS011;34646;47.964;7.982;2023-10-08T17:57:36;10.05;;;2.33;;
47367;SDS011;34646;47.964;7.982;2023-10-08T18:03:39;12.55;;;3.25;;
47367;SDS011;34646;47.964;7.982;2023-10-08T18:09:48;13.27;;;3.45;;
47367;SDS011;34646;47.964;7.982;2023-10-08T18:15:49;9.73;;;3.15;;
47367;SDS011;34646;47.964;7.982;2023-10-08T18:21:50;11.67;;;2.83;;
47367;SDS011;34646;47.964;7.982;2023-10-08T18:27:50;11.73;;;2.70;;
47367;SDS011;34646;47.964;7.982;2023-10-08T18:33:54;15.98;;;2.72;;
47367;SDS011;34646;47.964;7.982;2023-10-08T18:39:56;6.60;;;2.20;;
47367;SDS011;34646;47.964;7.982;2023-10-08T18:45:56;12.30;;;3.07;;
47367;SDS011;34646;47.964;7.982;2023-10-08T18:51:57;11.53;;;2.70;;
47367;SDS011;34646;47.964;7.982;2023-10-08T18:57:58;12.87;;;2.30;;
47367;SDS011;34646;47.964;7.982;2023-10-08T19:03:59;11.05;;;1.92;;
47367;SDS011;34646;47.964;7.982;2023-10-08T19:10:03;21.07;;;2.90;;
47367;SDS011;34646;47.964;7.982;2023-10-08T19:16:04;12.18;;;3.13;;
47367;SDS011;34646;47.964;7.982;2023-10-08T19:22:07;5.90;;;2.28;;
47367;SDS011;34646;47.964;7.982;2023-10-08T19:28:07;10.50;;;2.30;;
47367;SDS011;34646;47.964;7.982;2023-10-08T19:34:11;10.05;;;2.40;;
47367;SDS011;34646;47.964;7.982;2023-10-08T19:40:13;13.68;;;2.50;;
47367;SDS011;34646;47.964;7.982;2023-10-08T19:46:14;8.30;;;2.73;;
47367;SDS011;34646;47.964;7.982;2023-10-08T19:52:15;11.48;;;2.10;;
47367;SDS011;34646;47.964;7.982;2023-10-08T19:58:17;8.98;;;2.08;;
47367;SDS011;34646;47.964;7.982;2023-10-08T20:04:19;12.40;;;2.33;;
47367;SDS011;34646;47.964;7.982;2023-10-08T20:10:20;7.73;;;2.70;;
47367;SDS011;34646;47.964;7.982;2023-10-08T20:16:21;11.45;;;2.30;;
47367;SDS011;34646;47.964;7.982;2023-10-08T20:22:25;13.35;;;2.10;;
47367;SDS011;34646;47.964;7.982;2023-10-08T20:28:26;9.57;;;2.30;;
47367;SDS011;34646;47.964;7.982;2023-10-08T20:34:27;4.40;;;1.70;;
47367;SDS011;34646;47.964;7.982;2023-10-08T20:40:28;5.67;;;1.80;;
47367;SDS011;34646;47.964;7.982;2023-10-08T20:46:28;10.87;;;2.20;;
47367;SDS011;34646;47.964;7.982;2023-10-08T20:58:31;7.38;;;1.92;;
47367;SDS011;34646;47.964;7.982;2023-10-08T21:04:32;9.32;;;2.15;;
47367;SDS011;34646;47.964;7.982;2023-10-08T21:10:33;8.17;;;2.07;;
47367;SDS011;34646;47.964;7.982;2023-10-08T21:16:39;5.30;;;1.90;;
47367;SDS011;34646;47.964;7.982;2023-10-08T21:22:40;7.97;;;2.20;;
47367;SDS011;34646;47.964;7.982;2023-10-08T21:28:43;9.32;;;1.92;;
47367;SDS011;34646;47.964;7.982;2023-10-08T21:34:44;7.13;;;1.97;;
47367;SDS011;34646;47.964;7.982;2023-10-08T21:40:45;6.30;;;2.00;;
47367;SDS011;34646;47.964;7.982;2023-10-08T21:46:45;5.87;;;1.83;;
47367;SDS011;34646;47.964;7.982;2023-10-08T21:52:47;25.30;;;2.73;;
47367;SDS011;34646;47.964;7.982;2023-10-08T21:58:50;4.47;;;1.73;;
47367;SDS011;34646;47.964;7.982;2023-10-08T22:04:51;11.07;;;2.08;;
47367;SDS011;34646;47.964;7.982;2023-10-08T22:10:52;5.30;;;1.53;;
47367;SDS011;34646;47.964;7.982;2023-10-08T22:16:52;5.50;;;2.27;;
47367;SDS011;34646;47.964;7.982;2023-10-08T22:22:56;5.88;;;1.88;;
47367;SDS011;34646;47.964;7.982;2023-10-08T22:28:57;5.17;;;1.87;;
47367;SDS011;34646;47.964;7.982;2023-10-08T22:34:58;5.90;;;1.70;;
47367;SDS011;34646;47.964;7.982;2023-10-08T22:41:01;6.28;;;1.88;;
47367;SDS011;34646;47.964;7.982;2023-10-08T22:47:02;4.73;;;1.60;;
47367;SDS011;34646;47.964;7.982;2023-10-08T22:53:08;8.98;;;1.67;;
47367;SDS011;34646;47.964;7.982;2023-10-08T22:59:09;10.07;;;2.07;;
47367;SDS011;34646;47.964;7.982;2023-10-08T23:05:11;4.35;;;1.30;;
47367;SDS011;34646;47.964;7.982;2023-10-08T23:11:13;6.82;;;2.20;;
47367;SDS011;34646;47.964;7.982;2023-10-08T23:17:14;9.23;;;2.00;;
47367;SDS011;34646;47.964;7.982;2023-10-08T23:23:15;6.27;;;1.87;;
47367;SDS011;34646;47.964;7.982;2023-10-08T23:29:20;6.40;;;1.70;;
47367;SDS011;34646;47.964;7.982;2023-10-08T23:35:21;7.57;;;1.57;;
47367;SDS011;34646;47.964;7.982;2023-10-08T23:41:25;4.10;;;1.83;;
47367;SDS011;34646;47.964;7.982;2023-10-08T23:47:31;6.53;;;1.88;;
47367;SDS011;34646;47.964;7.982;2023-10-08T23:53:33;8.30;;;2.13;;
